Time;durP1;ratioP1;P1;durP2;ratioP2;P2;SDS_P1;SDS_P2;PMS_P1;PMS_P2;Temp;Humidity;BMP_temperature;BMP_pressure;BME280_temperature;BME280_humidity;BME280_pressure;Samples;Min_cycle;Max_cycle;Signal;HPM_P1;HPM_P2
2021/04/25 00:00:53;;;;;;;10.52;6.38;;;;;;;13.20;58.64;100781.91;5133247;27;20050;-82
2021/04/25 00:03:58;;;;;;;8.18;5.85;;;;;;;13.21;58.74;100775.53;5145326;27;20057;-81
2021/04/25 00:07:06;;;;;;;10.90;6.15;;;;;;;13.11;58.60;100784.63;5145471;27;20409;-82
2021/04/25 00:10:11;;;;;;;6.60;5.90;;;;;;;13.04;58.74;100770.78;5146129;27;20046;-81
2021/04/25 00:13:16;;;;;;;10.80;6.50;;;;;;;13.01;58.70;100763.84;5145073;27;20054;-81
2021/04/25 00:16:22;;;;;;;9.35;6.13;;;;;;;13.01;58.73;100763.00;5143004;27;20041;-81
2021/04/25 00:19:27;;;;;;;11.05;6.30;;;;;;;13.00;58.57;100756.75;5145757;27;20050;-80
2021/04/25 00:22:32;;;;;;;8.95;6.10;;;;;;;12.90;59.20;100763.13;5144018;27;20050;-80
2021/04/25 00:25:36;;;;;;;8.48;5.88;;;;;;;12.93;59.19;100765.53;5144674;27;20054;-82
2021/04/25 00:28:40;;;;;;;8.10;5.68;;;;;;;12.83;59.26;100762.84;5145354;27;20050;-81
2021/04/25 00:31:44;;;;;;;8.13;6.40;;;;;;;12.75;59.18;100756.44;5133300;27;20042;-81
2021/04/25 00:34:49;;;;;;;8.98;6.15;;;;;;;12.73;59.75;100770.03;5145608;27;20057;-81
2021/04/25 00:37:53;;;;;;;9.70;6.53;;;;;;;12.69;59.79;100759.69;5143968;27;20050;-81
2021/04/25 00:40:58;;;;;;;8.73;6.30;;;;;;;12.71;59.46;100765.78;5132877;27;20046;-81
2021/04/25 00:44:09;;;;;;;11.23;5.95;;;;;;;12.75;59.17;100761.81;5145452;27;20042;-81
2021/04/25 00:47:14;;;;;;;7.97;6.40;;;;;;;12.73;59.67;100763.81;5143838;27;20043;-81
2021/04/25 00:50:24;;;;;;;12.38;6.15;;;;;;;12.75;59.34;100749.19;5132727;27;20496;-80
2021/04/25 00:53:42;;;;;;;12.20;6.25;;;;;;;12.73;59.39;100742.25;5144243;27;20045;-81
2021/04/25 00:56:47;;;;;;;7.68;6.30;;;;;;;12.77;59.43;100739.13;5129945;27;20051;-82
2021/04/25 00:59:53;;;;;;;8.85;5.75;;;;;;;12.82;59.33;100736.88;5132667;27;20049;-81
2021/04/25 01:02:58;;;;;;;9.48;6.57;;;;;;;12.79;59.11;100738.97;5144382;27;20051;-82
2021/04/25 01:06:04;;;;;;;9.13;5.93;;;;;;;12.75;59.64;100745.66;5144152;27;20054;-81
2021/04/25 01:09:08;;;;;;;7.55;5.95;;;;;;;12.74;59.34;100742.09;5145176;27;20037;-81
2021/04/25 01:12:13;;;;;;;9.80;6.60;;;;;;;12.71;59.50;100739.72;5143514;27;20038;-81
2021/04/25 01:15:18;;;;;;;8.90;6.30;;;;;;;12.75;59.36;100735.72;5144360;27;20050;-81
2021/04/25 01:18:22;;;;;;;6.65;5.65;;;;;;;12.66;59.47;100741.09;5144766;27;20394;-81
2021/04/25 01:21:27;;;;;;;11.50;5.97;;;;;;;12.61;59.30;100749.59;5132487;27;20048;-82
2021/04/25 01:24:31;;;;;;;7.70;6.32;;;;;;;12.68;59.33;100744.50;5143186;27;20046;-82
2021/04/25 01:27:42;;;;;;;9.88;5.95;;;;;;;12.67;59.28;100748.19;5146251;27;20038;-82
2021/04/25 01:30:46;;;;;;;10.50;5.80;;;;;;;12.68;58.95;100739.97;5148991;27;20065;-81
2021/04/25 01:33:51;;;;;;;10.30;6.00;;;;;;;12.71;59.38;100741.53;5148883;27;20031;-82
2021/04/25 01:36:57;;;;;;;9.23;6.35;;;;;;;12.67;58.99;100735.56;5147575;27;20050;-82
2021/04/25 01:40:02;;;;;;;7.95;6.38;;;;;;;12.69;59.56;100747.06;5136107;27;20049;-82
2021/04/25 01:43:07;;;;;;;8.32;6.28;;;;;;;12.68;58.85;100739.97;5148802;27;20053;-81
2021/04/25 01:46:11;;;;;;;8.90;6.40;;;;;;;12.63;59.16;100744.94;5146905;27;20043;-81
2021/04/25 01:49:16;;;;;;;9.15;6.32;;;;;;;12.60;59.02;100738.94;5147605;27;20050;-81
2021/04/25 01:52:21;;;;;;;9.60;5.90;;;;;;;12.62;59.12;100742.34;5148069;27;20034;-81
2021/04/25 01:55:28;;;;;;;7.38;6.00;;;;;;;12.52;59.39;100733.44;5136004;27;20393;-81
2021/04/25 01:58:32;;;;;;;7.45;6.40;;;;;;;12.40;59.97;100730.81;5146907;27;20062;-81
2021/04/25 02:01:36;;;;;;;9.95;6.45;;;;;;;12.40;59.74;100736.22;5147389;27;20397;-81
2021/04/25 02:04:41;;;;;;;7.60;6.28;;;;;;;12.43;59.81;100729.69;5147832;27;20492;-81
2021/04/25 02:07:47;;;;;;;9.30;5.95;;;;;;;12.44;59.86;100731.41;5148325;27;20074;-80
2021/04/25 02:10:51;;;;;;;11.77;6.30;;;;;;;12.44;59.84;100730.56;5148372;27;20503;-80
2021/04/25 02:13:55;;;;;;;12.20;6.20;;;;;;;12.45;59.36;100730.41;5133019;27;20062;-81
2021/04/25 02:17:00;;;;;;;8.65;6.15;;;;;;;12.45;59.37;100721.47;5145038;27;20046;-82
2021/04/25 02:20:05;;;;;;;10.65;6.10;;;;;;;12.40;59.54;100728.13;5147937;27;20497;-81
2021/04/25 02:23:10;;;;;;;9.75;6.10;;;;;;;12.36;59.87;100724.03;5148109;27;20046;-82
2021/04/25 02:26:14;;;;;;;7.43;5.93;;;;;;;12.28;59.89;100718.47;5146752;27;20049;-80
2021/04/25 02:29:19;;;;;;;8.10;6.25;;;;;;;12.25;60.40;100721.44;5147248;27;20046;-80
2021/04/25 02:32:23;;;;;;;8.00;6.07;;;;;;;12.35;59.89;100718.75;5147609;27;20389;-81
2021/04/25 02:35:29;;;;;;;8.50;5.55;;;;;;;12.26;59.98;100712.38;5147841;27;20058;-81
2021/04/25 02:38:33;;;;;;;8.60;6.32;;;;;;;12.13;60.50;100717.13;5135233;27;20046;-81
2021/04/25 02:41:38;;;;;;;8.90;6.28;;;;;;;12.07;60.95;100714.16;5132263;27;20054;-81
2021/04/25 02:44:42;;;;;;;9.02;6.45;;;;;;;12.04;60.90;100707.19;5132248;27;20496;-81
2021/04/25 02:47:50;;;;;;;9.18;6.63;;;;;;;11.99;60.72;100706.75;5147674;27;20065;-81
2021/04/25 02:50:54;;;;;;;9.60;6.70;;;;;;;11.98;61.10;100698.78;5145920;27;20054;-81
2021/04/25 02:53:58;;;;;;;11.15;7.18;;;;;;;11.90;61.13;100698.63;5146681;27;20050;-81
2021/04/25 02:57:06;;;;;;;6.32;5.63;;;;;;;11.92;61.11;100700.22;5147067;27;20054;-81
2021/04/25 03:00:16;;;;;;;10.60;6.63;;;;;;;11.91;60.98;100701.19;5147351;27;20046;-81
2021/04/25 03:03:20;;;;;;;9.38;6.28;;;;;;;11.93;61.25;100693.81;5145564;27;20042;-81
2021/04/25 03:06:24;;;;;;;9.27;6.30;;;;;;;11.87;61.18;100691.69;5145284;27;20054;-81
2021/04/25 03:09:29;;;;;;;7.25;5.97;;;;;;;11.75;61.57;100696.28;5130162;27;20046;-81
2021/04/25 03:12:34;;;;;;;9.68;6.93;;;;;;;11.74;61.56;100699.13;5145285;27;20042;-81
2021/04/25 03:15:38;;;;;;;12.02;6.47;;;;;;;11.65;62.07;100694.50;5133473;27;20042;-81
2021/04/25 03:18:43;;;;;;;10.07;6.45;;;;;;;11.65;61.62;100684.59;5128352;27;20046;-80
2021/04/25 03:21:47;;;;;;;9.98;7.05;;;;;;;11.56;62.08;100687.22;5131384;27;20043;-80
2021/04/25 03:24:52;;;;;;;8.57;6.95;;;;;;;11.44;62.28;100675.72;5144247;27;20774;-82
2021/04/25 03:27:56;;;;;;;9.02;6.25;;;;;;;11.39;62.36;100672.56;5144449;27;20038;-81
2021/04/25 03:31:00;;;;;;;8.60;6.57;;;;;;;11.35;62.67;100684.56;5146203;27;20508;-81
2021/04/25 03:34:04;;;;;;;8.52;6.30;;;;;;;11.34;62.67;100679.31;5146742;27;20038;-81
2021/04/25 03:37:09;;;;;;;12.07;7.00;;;;;;;11.33;62.96;100677.63;5146615;27;20040;-81
2021/04/25 03:40:15;;;;;;;8.57;6.22;;;;;;;11.36;62.72;100672.81;5138566;27;20058;-81
2021/04/25 03:43:20;;;;;;;10.45;6.75;;;;;;;11.42;62.13;100672.31;5145717;27;20050;-82
2021/04/25 03:46:24;;;;;;;9.82;6.47;;;;;;;11.32;62.64;100670.53;5133581;27;20042;-81
2021/04/25 03:49:28;;;;;;;9.20;6.18;;;;;;;11.29;63.02;100673.47;5146178;27;20107;-82
2021/04/25 03:52:36;;;;;;;11.40;5.90;;;;;;;11.36;62.98;100664.75;5144476;27;20050;-81
2021/04/25 03:55:41;;;;;;;9.95;5.93;;;;;;;11.34;63.11;100671.25;5145728;27;20042;-82
2021/04/25 03:58:45;;;;;;;7.60;6.25;;;;;;;11.27;62.85;100662.88;5147570;27;20508;-80
2021/04/25 04:01:50;;;;;;;10.23;6.30;;;;;;;11.25;63.05;100661.28;5143814;27;20393;-82
2021/04/25 04:04:54;;;;;;;8.35;6.47;;;;;;;11.28;62.97;100658.34;5144545;27;20046;-82
2021/04/25 04:07:59;;;;;;;12.15;6.55;;;;;;;11.37;62.87;100665.63;5144785;27;20066;-80
2021/04/25 04:11:04;;;;;;;7.70;6.03;;;;;;;11.41;62.69;100667.03;5132784;27;20042;-81
2021/04/25 04:14:08;;;;;;;7.57;6.05;;;;;;;11.30;62.83;100664.44;5146227;27;20073;-81
2021/04/25 04:17:13;;;;;;;7.65;6.43;;;;;;;11.32;62.62;100668.69;5144238;27;20040;-82
2021/04/25 04:20:17;;;;;;;8.73;6.32;;;;;;;11.32;62.26;100670.53;5123434;27;20054;-82
2021/04/25 04:23:22;;;;;;;9.85;6.15;;;;;;;11.23;62.47;100660.56;5143528;27;20046;-81
2021/04/25 04:26:27;;;;;;;10.35;6.40;;;;;;;11.21;62.72;100665.25;5146111;27;20041;-82
2021/04/25 04:29:32;;;;;;;10.52;6.18;;;;;;;11.30;62.57;100670.69;5145962;27;20045;-82
2021/04/25 04:32:37;;;;;;;11.10;6.15;;;;;;;11.39;62.94;100679.75;5144237;27;20042;-82
2021/04/25 04:35:41;;;;;;;8.43;6.20;;;;;;;11.47;62.95;100675.44;5143177;27;20045;-82
2021/04/25 04:38:45;;;;;;;9.93;5.97;;;;;;;11.62;62.34;100684.03;5145570;27;20058;-83
2021/04/25 04:41:50;;;;;;;11.00;6.72;;;;;;;11.56;62.57;100689.91;5140236;27;20401;-82
2021/04/25 04:44:54;;;;;;;8.55;6.22;;;;;;;11.55;63.67;100681.00;5143715;27;20039;-82
2021/04/25 04:47:58;;;;;;;10.77;6.50;;;;;;;11.61;63.30;100693.06;5131638;27;20043;-82
2021/04/25 04:51:03;;;;;;;9.90;7.35;;;;;;;11.52;64.96;100691.19;5145672;27;20405;-81
2021/04/25 04:54:08;;;;;;;8.05;7.13;;;;;;;11.66;65.05;100688.13;5145451;27;21573;-81
2021/04/25 04:57:15;;;;;;;9.00;7.57;;;;;;;11.83;64.13;100690.22;5145227;27;20038;-81
2021/04/25 05:00:19;;;;;;;10.13;7.00;;;;;;;12.14;63.86;100689.25;5142314;27;20508;-81
2021/04/25 05:03:23;;;;;;;8.27;7.03;;;;;;;12.55;63.05;100690.91;5147467;27;20042;-82
2021/04/25 05:06:28;;;;;;;8.70;6.75;;;;;;;12.87;61.35;100694.19;5149810;27;20050;-81
2021/04/25 05:09:32;;;;;;;10.77;7.97;;;;;;;13.10;60.79;100700.19;5149563;27;20050;-81
2021/04/25 05:12:36;;;;;;;13.80;7.75;;;;;;;13.38;59.50;100714.66;5147898;27;20034;-81
2021/04/25 05:15:41;;;;;;;9.95;7.47;;;;;;;13.41;59.08;100712.50;5135788;27;20058;-81
2021/04/25 05:18:45;;;;;;;15.90;7.63;;;;;;;13.64;58.88;100707.66;5149357;27;20035;-81
2021/04/25 05:21:50;;;;;;;10.57;8.23;;;;;;;14.05;57.54;100709.06;5145669;27;20038;-80
2021/04/25 05:24:55;;;;;;;10.48;6.55;;;;;;;14.65;56.02;100707.66;5147078;27;20103;-81
2021/04/25 05:27:59;;;;;;;18.83;8.07;;;;;;;15.49;53.66;100709.00;5133605;27;20073;-80
2021/04/25 05:31:04;;;;;;;9.15;6.60;;;;;;;16.02;51.44;100708.84;5148660;27;20397;-81
2021/04/25 05:34:08;;;;;;;7.15;6.32;;;;;;;16.74;49.53;100708.31;5149202;27;20050;-82
2021/04/25 05:37:12;;;;;;;10.48;6.10;;;;;;;17.23;47.92;100703.84;5136228;27;20499;-82
2021/04/25 05:40:17;;;;;;;10.02;6.30;;;;;;;17.98;46.01;100687.13;5134787;27;20054;-82
2021/04/25 05:43:21;;;;;;;8.98;5.90;;;;;;;18.79;44.19;100689.53;5140097;27;20042;-82
2021/04/25 05:46:26;;;;;;;8.80;5.75;;;;;;;19.49;42.43;100690.22;5148554;27;20062;-82
2021/04/25 05:49:30;;;;;;;6.78;5.32;;;;;;;20.20;40.82;100689.63;5148773;27;20045;-83
2021/04/25 05:52:34;;;;;;;11.50;5.50;;;;;;;20.60;39.37;100691.03;5146824;27;20051;-82
2021/04/25 05:55:39;;;;;;;7.05;5.30;;;;;;;20.46;38.02;100686.47;5147447;27;20050;-81
2021/04/25 05:58:43;;;;;;;11.30;4.90;;;;;;;20.35;39.01;100693.22;5147952;27;20046;-83
2021/04/25 06:01:47;;;;;;;6.80;5.07;;;;;;;20.53;38.31;100690.97;5146029;27;20049;-82
2021/04/25 06:04:52;;;;;;;6.15;4.72;;;;;;;21.81;35.67;100675.44;5147908;27;20045;-82
2021/04/25 06:07:56;;;;;;;6.43;5.03;;;;;;;22.79;34.09;100677.94;5143033;27;20046;-82
2021/04/25 06:11:00;;;;;;;7.35;4.68;;;;;;;24.51;31.33;100684.03;5134759;27;20041;-82
2021/04/25 06:14:05;;;;;;;5.40;4.55;;;;;;;24.48;30.78;100682.56;5147461;27;20043;-82
2021/04/25 06:17:10;;;;;;;7.63;4.68;;;;;;;25.37;30.02;100678.94;5148204;27;20054;-82
2021/04/25 06:20:19;;;;;;;5.97;4.72;;;;;;;28.88;25.44;100672.38;5141727;27;20046;-83
2021/04/25 06:23:24;;;;;;;6.75;3.95;;;;;;;30.32;23.73;100666.00;5141567;27;20108;-82
2021/04/25 06:26:28;;;;;;;7.38;4.63;;;;;;;30.17;23.57;100668.56;5142220;27;20042;-83
2021/04/25 06:29:33;;;;;;;6.88;4.85;;;;;;;29.77;24.51;100662.38;5148822;27;20058;-83
2021/04/25 06:32:40;;;;;;;10.18;4.88;;;;;;;28.37;25.89;100656.63;5148769;27;20038;-83
2021/04/25 06:35:45;;;;;;;9.20;5.25;;;;;;;26.19;28.75;100653.91;5147045;27;20042;-84
2021/04/25 06:38:49;;;;;;;15.63;12.55;;;;;;;25.85;29.54;100656.09;5149375;27;20421;-84
2021/04/25 06:41:54;;;;;;;21.75;19.00;;;;;;;27.38;28.32;100649.31;5127239;27;20047;-81
2021/04/25 06:44:58;;;;;;;11.80;8.00;;;;;;;27.66;27.32;100660.50;5140767;27;20027;-87
2021/04/25 06:48:03;;;;;;;7.68;4.93;;;;;;;28.93;26.22;100659.50;5137100;27;20046;-84
2021/04/25 06:51:07;;;;;;;8.73;4.88;;;;;;;31.30;23.38;100665.00;5136949;27;20046;-85
2021/04/25 06:54:12;;;;;;;7.28;4.72;;;;;;;33.71;21.45;100653.41;5129499;27;20528;-84
2021/04/25 06:57:16;;;;;;;7.22;4.70;;;;;;;36.10;19.32;100664.75;5147031;27;20042;-83
2021/04/25 07:00:23;;;;;;;9.23;4.65;;;;;;;36.73;18.43;100659.84;5147091;27;20064;-82
2021/04/25 07:03:27;;;;;;;6.55;3.55;;;;;;;39.19;16.49;100648.09;5128979;27;20038;-82
2021/04/25 07:06:18;;;;;;;7.90;4.68;;;;;;;39.59;16.17;100649.91;5063582;28;20379;-85
2021/04/25 07:09:23;;;;;;;7.38;3.85;;;;;;;41.24;15.37;100645.44;5033852;28;20056;-84
2021/04/25 07:12:27;;;;;;;8.43;4.68;;;;;;;40.50;15.48;100647.47;5044272;28;20052;-82
2021/04/25 07:15:32;;;;;;;9.50;4.13;;;;;;;39.37;16.40;100643.44;5029820;28;20048;-83
2021/04/25 07:18:36;;;;;;;8.40;4.10;;;;;;;41.76;14.87;100642.63;5043657;28;20048;-81
2021/04/25 07:21:40;;;;;;;8.75;3.95;;;;;;;42.94;14.25;100642.47;5048810;28;20052;-82
2021/04/25 07:24:45;;;;;;;6.35;4.20;;;;;;;42.73;13.94;100635.94;5039241;28;20060;-82
2021/04/25 07:27:49;;;;;;;7.90;3.72;;;;;;;42.46;13.79;100642.88;5043124;28;20048;-82
2021/04/25 07:30:54;;;;;;;8.50;4.05;;;;;;;43.71;13.99;100641.00;5050189;28;20060;-81
2021/04/25 07:33:59;;;;;;;5.65;3.85;;;;;;;42.29;14.29;100642.97;5038155;28;20057;-81
2021/04/25 07:37:07;;;;;;;8.02;4.53;;;;;;;40.69;15.51;100642.38;5042041;28;20159;-81
2021/04/25 07:40:12;;;;;;;7.15;4.50;;;;;;;40.46;15.12;100645.63;5029607;28;20048;-81
2021/04/25 07:43:16;;;;;;;7.38;4.32;;;;;;;40.79;15.50;100638.44;5038981;28;20061;-82
2021/04/25 07:46:21;;;;;;;6.47;3.80;;;;;;;39.94;15.46;100639.72;5063977;28;20060;-81
2021/04/25 07:49:25;;;;;;;6.07;3.83;;;;;;;43.24;13.74;100629.09;5045861;28;20053;-81
2021/04/25 07:52:29;;;;;;;8.48;4.00;;;;;;;42.05;14.99;100631.41;5040170;28;20056;-81
2021/04/25 07:55:34;;;;;;;18.30;4.28;;;;;;;42.02;15.05;100634.94;5030395;28;20140;-80
2021/04/25 07:58:38;;;;;;;7.25;3.67;;;;;;;40.92;15.93;100629.03;5049434;28;20052;-81
2021/04/25 08:01:57;;;;;;;8.75;3.95;;;;;;;41.28;15.72;100635.22;5050228;28;20040;-81
2021/04/25 08:05:01;;;;;;;5.60;4.07;;;;;;;40.56;15.44;100629.28;5049700;28;20602;-81
2021/04/25 08:08:05;;;;;;;7.75;3.85;;;;;;;40.09;16.46;100630.91;5050148;28;20048;-82
2021/04/25 08:11:11;;;;;;;8.75;7.80;;;;;;;39.84;16.11;100633.53;5050573;28;20052;-81
2021/04/25 08:14:15;;;;;;;18.13;16.42;;;;;;;38.95;16.81;100625.88;5049907;28;20044;-80
2021/04/25 08:17:19;;;;;;;6.70;4.68;;;;;;;37.55;18.17;100635.97;5039883;28;20064;-81
2021/04/25 08:20:24;;;;;;;9.05;4.88;;;;;;;35.27;20.22;100638.91;5037520;28;20112;-81
2021/04/25 08:23:29;;;;;;;8.93;5.00;;;;;;;35.49;19.61;100644.03;5037341;28;20499;-81
2021/04/25 08:26:33;;;;;;;5.45;4.40;;;;;;;36.69;19.24;100646.75;5037524;28;20064;-81
2021/04/25 08:29:43;;;;;;;11.23;4.70;;;;;;;37.50;18.45;100641.66;5037430;28;20396;-84
2021/04/25 08:32:48;;;;;;;8.85;4.68;;;;;;;37.39;19.18;100645.75;5032180;28;20049;-80
2021/04/25 08:35:52;;;;;;;7.53;5.25;;;;;;;37.09;19.21;100646.19;5030003;28;20052;-79
2021/04/25 08:38:57;;;;;;;9.05;5.50;;;;;;;36.18;19.38;100646.50;5035942;28;20048;-79
2021/04/25 08:42:01;;;;;;;7.50;5.30;;;;;;;32.78;22.56;100653.53;5034382;28;20519;-81
2021/04/25 08:45:06;;;;;;;6.07;5.00;;;;;;;30.72;25.86;100657.38;5035006;28;20057;-82
2021/04/25 08:48:12;;;;;;;10.52;5.07;;;;;;;28.59;27.77;100660.44;5032750;28;20396;-82
2021/04/25 08:51:18;;;;;;;7.50;6.10;;;;;;;27.13;31.32;100656.91;5047139;28;20052;-79
2021/04/25 08:54:26;;;;;;;7.45;5.50;;;;;;;26.97;30.85;100663.06;5046462;28;20049;-83
2021/04/25 08:57:34;;;;;;;10.95;5.70;;;;;;;26.01;32.29;100657.44;5040510;28;20070;-84
2021/04/25 09:00:39;;;;;;;11.65;9.60;;;;;;;25.18;33.36;100658.78;5030592;28;20068;-82
2021/04/25 09:03:43;;;;;;;9.77;8.82;;;;;;;24.31;34.12;100664.91;5036579;28;20044;-82
2021/04/25 09:07:02;;;;;;;12.70;8.88;;;;;;;24.17;34.69;100670.66;5029503;28;20064;-83
2021/04/25 09:10:08;;;;;;;9.10;6.07;;;;;;;24.18;34.93;100659.44;5034487;28;20063;-82
2021/04/25 09:13:12;;;;;;;6.60;6.00;;;;;;;24.50;35.62;100665.88;5032717;28;20044;-85
2021/04/25 09:16:17;;;;;;;9.07;6.93;;;;;;;24.29;35.55;100658.81;5035821;28;20048;-80
2021/04/25 09:19:22;;;;;;;9.63;7.18;;;;;;;24.04;36.51;100651.44;5044506;28;20041;-81
2021/04/25 09:22:44;;;;;;;10.32;7.28;;;;;;;23.40;36.77;100654.91;5038658;28;20418;-83
2021/04/25 09:26:06;;;;;;;9.65;6.90;;;;;;;23.29;36.66;100650.84;5040539;28;20048;-80
2021/04/25 09:29:10;;;;;;;9.48;7.53;;;;;;;23.47;37.28;100643.94;5024305;28;20064;-84
2021/04/25 09:32:23;;;;;;;10.65;7.57;;;;;;;23.65;36.41;100639.47;5032765;28;20221;-83
2021/04/25 09:35:28;;;;;;;10.27;7.67;;;;;;;23.60;36.25;100635.72;5050268;28;20550;-84
2021/04/25 09:38:35;;;;;;;11.10;8.57;;;;;;;23.68;35.88;100639.06;5051413;28;20534;-81
2021/04/25 09:41:40;;;;;;;11.27;8.27;;;;;;;23.51;36.14;100635.06;5051326;28;20068;-83
2021/04/25 09:44:45;;;;;;;12.57;8.95;;;;;;;23.35;35.28;100637.38;5050631;28;20043;-83
2021/04/25 09:47:49;;;;;;;11.73;7.88;;;;;;;23.58;36.16;100630.41;5053461;28;20048;-79
2021/04/25 09:51:16;;;;;;;10.88;9.48;;;;;;;23.20;37.69;100623.88;5054610;28;20044;-81
2021/04/25 09:54:21;;;;;;;11.95;9.45;;;;;;;23.15;36.92;100627.25;5054896;28;20376;-82
2021/04/25 09:57:32;;;;;;;12.57;8.32;;;;;;;23.38;36.11;100617.81;5054750;28;20055;-79
2021/04/25 10:00:39;;;;;;;13.10;9.02;;;;;;;23.68;35.53;100622.59;5054774;28;20039;-80
2021/04/25 10:03:47;;;;;;;11.50;8.68;;;;;;;24.04;36.06;100618.53;5054678;28;20052;-79
2021/04/25 10:06:53;;;;;;;13.90;9.45;;;;;;;23.82;36.30;100613.31;5054345;28;20056;-79
2021/04/25 10:10:13;;;;;;;11.60;9.90;;;;;;;23.71;36.97;100615.84;5054601;28;20503;-81
2021/04/25 10:13:18;;;;;;;11.23;8.75;;;;;;;24.03;37.29;100608.59;5053682;28;20063;-81
2021/04/25 10:16:22;;;;;;;13.38;9.77;;;;;;;24.00;36.10;100606.31;5054475;28;20052;-81
2021/04/25 10:19:27;;;;;;;11.65;9.73;;;;;;;23.82;36.18;100607.00;5054481;28;20052;-81
2021/04/25 10:22:32;;;;;;;14.20;9.18;;;;;;;23.46;36.15;100609.34;5054386;28;20064;-81
2021/04/25 10:25:37;;;;;;;14.00;9.52;;;;;;;23.44;36.78;100600.50;5054258;28;20060;-82
2021/04/25 10:28:52;;;;;;;11.38;8.57;;;;;;;23.53;36.42;100602.81;5054327;28;20048;-82
2021/04/25 10:31:59;;;;;;;10.60;8.50;;;;;;;23.69;36.37;100599.63;5053164;28;20048;-82
2021/04/25 10:35:21;;;;;;;12.07;9.32;;;;;;;23.61;36.08;100604.47;5054236;28;20060;-82
2021/04/25 10:38:37;;;;;;;12.63;9.32;;;;;;;23.58;37.47;100594.78;5054087;28;20052;-81
2021/04/25 10:41:41;;;;;;;12.23;9.40;;;;;;;23.25;37.88;100591.22;5053799;28;20391;-81
2021/04/25 10:44:58;;;;;;;12.18;9.50;;;;;;;23.23;38.24;100590.59;5053917;28;20044;-82
2021/04/25 10:48:18;;;;;;;11.80;9.55;;;;;;;23.05;37.98;100584.88;5053252;28;20048;-81
2021/04/25 10:51:22;;;;;;;16.27;10.57;;;;;;;22.97;37.64;100577.72;5053126;28;20052;-81
2021/04/25 10:54:27;;;;;;;13.18;9.90;;;;;;;23.07;38.04;100574.56;5053954;28;20048;-81
2021/04/25 10:57:32;;;;;;;14.35;9.93;;;;;;;22.76;37.93;100569.69;5053865;28;20051;-81
2021/04/25 11:00:38;;;;;;;11.48;10.10;;;;;;;22.80;37.71;100565.47;5053100;28;20052;-82
2021/04/25 11:03:42;;;;;;;13.27;9.55;;;;;;;23.00;37.10;100554.56;5053875;28;20056;-82
2021/04/25 11:06:47;;;;;;;13.15;9.18;;;;;;;22.92;36.88;100546.53;5053806;28;20052;-81
2021/04/25 11:09:52;;;;;;;16.00;11.00;;;;;;;22.90;38.00;100545.91;5053784;28;20064;-82
2021/04/25 11:12:57;;;;;;;15.38;9.85;;;;;;;22.65;36.91;100553.88;5052926;28;20048;-81
2021/04/25 11:16:05;;;;;;;13.70;9.73;;;;;;;22.52;36.40;100542.88;5053654;28;20048;-81
2021/04/25 11:19:12;;;;;;;13.82;9.32;;;;;;;22.56;36.92;100542.28;5053979;28;20392;-81
2021/04/25 11:22:46;;;;;;;15.57;9.35;;;;;;;22.64;37.46;100539.34;5053663;28;20044;-81
2021/04/25 11:25:50;;;;;;;15.50;10.00;;;;;;;22.66;37.80;100529.03;5053800;28;20364;-81
2021/04/25 11:28:54;;;;;;;14.43;11.35;;;;;;;22.67;36.99;100521.66;5052818;28;20049;-81
2021/04/25 11:32:00;;;;;;;14.45;11.13;;;;;;;22.61;36.93;100522.50;5053357;28;20064;-81
2021/04/25 11:35:10;;;;;;;23.77;13.63;;;;;;;22.57;37.30;100523.94;5053594;28;20056;-81
2021/04/25 11:38:15;;;;;;;22.85;17.45;;;;;;;22.65;37.07;100524.63;5053511;28;20387;-81
2021/04/25 11:41:19;;;;;;;15.80;10.88;;;;;;;22.60;37.94;100518.06;5053548;28;20068;-81
2021/04/25 11:44:28;;;;;;;16.60;11.48;;;;;;;22.78;37.67;100515.59;5053503;28;20419;-81
2021/04/25 11:47:33;;;;;;;17.30;11.43;;;;;;;22.74;36.32;100508.81;5053335;28;20048;-81
2021/04/25 11:50:39;;;;;;;16.75;11.52;;;;;;;22.88;36.32;100515.16;5053406;28;20048;-81
2021/04/25 11:53:45;;;;;;;16.33;11.48;;;;;;;22.88;36.65;100512.44;5057472;28;20119;-81
2021/04/25 11:56:49;;;;;;;17.85;12.13;;;;;;;22.80;37.19;100505.25;5049388;28;20384;-83
2021/04/25 12:00:03;;;;;;;21.75;12.95;;;;;;;22.78;36.55;100501.06;5043869;28;20041;-82
2021/04/25 12:03:10;;;;;;;15.57;11.73;;;;;;;22.86;36.74;100495.38;5041810;28;20048;-80
2021/04/25 12:06:14;;;;;;;22.73;13.45;;;;;;;22.82;35.92;100505.88;5043439;28;20045;-82
2021/04/25 12:09:18;;;;;;;22.88;13.82;;;;;;;22.85;35.98;100499.16;5037727;28;20045;-83
2021/04/25 12:12:23;;;;;;;20.25;14.88;;;;;;;22.90;35.72;100497.47;5046636;28;20476;-81
2021/04/25 12:15:52;;;;;;;21.00;13.20;;;;;;;22.85;36.10;100494.53;5042466;28;20045;-81
2021/04/25 12:18:56;;;;;;;17.83;12.98;;;;;;;22.79;36.57;100492.63;5036063;28;20034;-82
2021/04/25 12:22:01;;;;;;;20.13;13.60;;;;;;;22.76;36.56;100492.22;5035853;28;20045;-82
2021/04/25 12:25:06;;;;;;;20.55;13.32;;;;;;;22.87;37.61;100486.94;5041758;28;20491;-82
2021/04/25 12:28:11;;;;;;;17.60;13.10;;;;;;;22.99;36.86;100479.78;5036722;28;20045;-81
2021/04/25 12:31:22;;;;;;;18.30;13.70;;;;;;;23.08;36.56;100492.22;5014101;28;20050;-80
2021/04/25 12:34:31;;;;;;;23.15;14.30;;;;;;;22.94;36.94;100484.19;5014809;28;20045;-80
2021/04/25 12:37:42;;;;;;;21.40;15.05;;;;;;;22.82;36.86;100484.00;5021685;28;20099;-81
2021/04/25 12:41:13;;;;;;;25.67;15.00;;;;;;;22.79;36.73;100481.66;5038974;28;20037;-81
2021/04/25 12:44:33;;;;;;;21.17;14.43;;;;;;;22.90;37.19;100485.69;5046640;28;20044;-79
2021/04/25 12:47:40;;;;;;;20.83;14.63;;;;;;;22.88;36.46;100479.56;5054915;28;20380;-81
2021/04/25 12:51:00;;;;;;;25.02;14.18;;;;;;;22.98;36.79;100480.00;5030801;28;20044;-80
2021/04/25 12:54:08;;;;;;;22.65;15.77;;;;;;;22.98;36.10;100478.09;5016457;28;20381;-80
2021/04/25 12:57:29;;;;;;;20.55;14.07;;;;;;;23.07;35.98;100478.72;5016301;28;20041;-81
2021/04/25 13:00:34;;;;;;;22.77;15.23;;;;;;;23.15;36.49;100470.28;5026226;28;20100;-81
2021/04/25 13:03:40;;;;;;;20.02;13.68;;;;;;;23.29;36.41;100470.03;5016094;28;20053;-80
2021/04/25 13:06:44;;;;;;;25.50;14.60;;;;;;;23.38;36.64;100464.38;5026619;28;20045;-81
2021/04/25 13:09:55;;;;;;;20.77;15.55;;;;;;;23.35;36.57;100471.09;5016078;28;20049;-80
2021/04/25 13:13:01;;;;;;;19.58;13.07;;;;;;;23.36;36.27;100459.09;5015107;28;20049;-81
2021/04/25 13:16:13;;;;;;;19.55;13.05;;;;;;;23.45;36.49;100462.44;5027420;28;20057;-80
2021/04/25 13:19:27;;;;;;;18.60;13.00;;;;;;;23.45;36.02;100452.34;5038159;28;20033;-81
2021/04/25 13:22:31;;;;;;;22.55;13.93;;;;;;;23.53;35.33;100462.22;5034906;28;20046;-82
2021/04/25 13:25:43;;;;;;;21.95;13.90;;;;;;;23.54;35.77;100456.50;5041915;28;20053;-80
2021/04/25 13:28:47;;;;;;;21.88;13.85;;;;;;;23.52;35.23;100447.69;5042339;28;20037;-81
2021/04/25 13:31:51;;;;;;;21.10;13.70;;;;;;;23.60;35.51;100443.84;5042150;28;20061;-80
2021/04/25 13:34:56;;;;;;;18.65;13.77;;;;;;;23.65;35.62;100436.63;5041719;28;20579;-80
2021/04/25 13:38:01;;;;;;;21.55;14.10;;;;;;;23.72;36.10;100436.63;5053133;28;20492;-84
2021/04/25 13:41:05;;;;;;;20.00;13.82;;;;;;;23.74;36.24;100424.38;5040481;28;20472;-85
2021/04/25 13:44:11;;;;;;;20.52;14.07;;;;;;;23.67;36.35;100429.06;5046446;28;20052;-89
2021/04/25 13:47:15;;;;;;;17.13;12.18;;;;;;;23.68;36.74;100419.75;5036590;28;20053;-87
2021/04/25 13:50:20;;;;;;;17.73;11.73;;;;;;;23.67;36.02;100417.25;5060277;28;20049;-87
2021/04/25 13:53:27;;;;;;;19.55;13.10;;;;;;;23.50;36.09;100408.69;5039996;28;20045;-84
2021/04/25 13:56:32;;;;;;;22.33;12.68;;;;;;;23.57;36.19;100409.50;5034456;28;20045;-88
2021/04/25 13:59:37;;;;;;;17.13;12.50;;;;;;;23.50;35.83;100396.88;5040542;28;20044;-86
2021/04/25 14:02:42;;;;;;;23.38;13.10;;;;;;;23.40;36.33;100404.72;5030466;28;20041;-84
2021/04/25 14:05:46;;;;;;;19.40;11.98;;;;;;;23.45;35.74;100392.06;5034141;28;20040;-88
2021/04/25 14:08:59;;;;;;;20.40;12.32;;;;;;;23.50;36.03;100384.03;5041767;28;20033;-86
2021/04/25 14:12:05;;;;;;;17.45;12.77;;;;;;;23.48;35.93;100377.91;5041214;28;20531;-88
2021/04/25 14:15:12;;;;;;;20.85;14.20;;;;;;;23.45;35.65;100377.50;5034123;28;20045;-87
2021/04/25 14:18:17;;;;;;;22.02;12.80;;;;;;;23.43;36.16;100372.22;5031967;28;20056;-85